Valiant — WCY6766 — position and weather

sailwx.info

Track history (hours):
 
Tides and Currents Weather Stations Pressure Air Temp Water Temp Dewpoint Dewpoint Depression Visibility Wind Speed Wind Dir Waves Ship Positions

Valiant

Owner: PENN MARITIME INC, SEATTLE, WA. More information available from US FCC via Universal Licensing System and Coast Guard Vessel Documentation Center.

Last reported at 2016-Jun-25 05:33 UTC. Time now 2016-Jun-25 07:04 UTC.
Position N 29°48' W 093°57'.

Length 172 m; draft 11 m.

Type: Tanker. MMSI: 369350000.

Date/timePositionNaut miles runAvg speedWind from/ knotsBaromVisibWave heightAir tempDewpointWater temp
2016-Jun-25 05:33N 29°48' W 093°57'6 6.3
2016-Jun-25 04:33N 29°44' W 093°52'10 7.1
2016-Jun-25 03:07N 29°35' W 093°47'  
2016-Jun-19 22:33N 29°45' W 090°01'9 8.2
2016-Jun-19 21:26N 29°52' W 089°54'9 9.8
2016-Jun-19 20:33N 29°57' W 090°02'7 6.4
2016-Jun-19 19:33N 29°57' W 090°10'  
2016-Jun-16 19:27N 29°56' W 090°03'4 4.9
2016-Jun-16 18:32N 29°56' W 089°58'5 4.6
2016-Jun-16 17:31N 29°53' W 089°54'5 5.3
2016-Jun-16 16:33N 29°50' W 089°59'7 3.1
2016-Jun-16 14:10N 29°43' W 089°59'12 7.6
2016-Jun-16 12:33N 29°54' W 089°55'9 8.8
2016-Jun-16 11:33N 29°55' W 090°05'1 1.4
2016-Jun-16 10:31N 29°54' W 090°06'0 0.0
2016-Jun-16 09:28N 29°54' W 090°06'0 0.0
2016-Jun-16 08:25N 29°54' W 090°06'0 0.0
2016-Jun-16 07:31N 29°54' W 090°06'0 0.0
2016-Jun-16 06:31N 29°54' W 090°06'0 0.0
2016-Jun-16 05:31N 29°54' W 090°06'0 0.0
2016-Jun-16 04:31N 29°54' W 090°06'0 0.0
2016-Jun-16 03:31N 29°54' W 090°06'0 0.0
2016-Jun-16 02:31N 29°54' W 090°06'0 0.0
2016-Jun-16 01:28N 29°54' W 090°06'0 0.0
2016-Jun-16 00:31N 29°54' W 090°06'0 0.0
2016-Jun-15 23:31N 29°54' W 090°06'0 0.0
2016-Jun-15 22:31N 29°54' W 090°06'0 0.0
2016-Jun-15 21:31N 29°54' W 090°06'0 0.0
2016-Jun-15 20:31N 29°54' W 090°06'0 0.0
2016-Jun-15 19:31N 29°54' W 090°06'0 0.0
2016-Jun-15 18:28N 29°54' W 090°06'0 0.0
2016-Jun-15 17:31N 29°54' W 090°06'0 0.0
2016-Jun-15 15:31N 29°54' W 090°06'0 0.0
2016-Jun-15 14:31N 29°54' W 090°06'0 0.0
2016-Jun-15 13:31N 29°54' W 090°06'0 0.0
2016-Jun-15 12:31N 29°54' W 090°06'0 0.0
2016-Jun-15 11:19N 29°54' W 090°06'0 0.0
2016-Jun-15 10:28N 29°54' W 090°06'0 0.0
2016-Jun-15 09:31N 29°54' W 090°06'0 0.0
2016-Jun-15 08:31N 29°54' W 090°06'0 0.0
2016-Jun-15 07:28N 29°54' W 090°06'0 0.0
2016-Jun-15 06:31N 29°54' W 090°06'  
Track history (hours):
 
Tides and Currents Weather Stations Pressure Air Temp Water Temp Dewpoint Dewpoint Depression Visibility Wind Speed Wind Dir Waves Ship Positions

Valiant

Owner: PENN MARITIME INC, SEATTLE, WA. More information available from US FCC via Universal Licensing System and Coast Guard Vessel Documentation Center.

Last reported at 2016-Jun-25 05:33 UTC. Time now 2016-Jun-25 07:04 UTC.
Position N 29°48' W 093°57'.

Length 172 m; draft 11 m.

Type: Tanker. MMSI: 369350000.

Date/timePositionNaut miles runAvg speedWind from/ knotsBaromVisibWave heightAir tempDewpointWater temp
2016-Jun-25 05:33N 29°48' W 093°57'6 6.3
2016-Jun-25 04:33N 29°44' W 093°52'10 7.1
2016-Jun-25 03:07N 29°35' W 093°47'  
2016-Jun-19 22:33N 29°45' W 090°01'9 8.2
2016-Jun-19 21:26N 29°52' W 089°54'9 9.8
2016-Jun-19 20:33N 29°57' W 090°02'7 6.4
2016-Jun-19 19:33N 29°57' W 090°10'  
2016-Jun-16 19:27N 29°56' W 090°03'4 4.9
2016-Jun-16 18:32N 29°56' W 089°58'5 4.6
2016-Jun-16 17:31N 29°53' W 089°54'5 5.3
2016-Jun-16 16:33N 29°50' W 089°59'7 3.1
2016-Jun-16 14:10N 29°43' W 089°59'12 7.6
2016-Jun-16 12:33N 29°54' W 089°55'9 8.8
2016-Jun-16 11:33N 29°55' W 090°05'1 1.4
2016-Jun-16 10:31N 29°54' W 090°06'0 0.0
2016-Jun-16 09:28N 29°54' W 090°06'0 0.0
2016-Jun-16 08:25N 29°54' W 090°06'0 0.0
2016-Jun-16 07:31N 29°54' W 090°06'0 0.0
2016-Jun-16 06:31N 29°54' W 090°06'0 0.0
2016-Jun-16 05:31N 29°54' W 090°06'0 0.0
2016-Jun-16 04:31N 29°54' W 090°06'0 0.0
2016-Jun-16 03:31N 29°54' W 090°06'0 0.0
2016-Jun-16 02:31N 29°54' W 090°06'0 0.0
2016-Jun-16 01:28N 29°54' W 090°06'0 0.0
2016-Jun-16 00:31N 29°54' W 090°06'0 0.0
2016-Jun-15 23:31N 29°54' W 090°06'0 0.0
2016-Jun-15 22:31N 29°54' W 090°06'0 0.0
2016-Jun-15 21:31N 29°54' W 090°06'0 0.0
2016-Jun-15 20:31N 29°54' W 090°06'0 0.0
2016-Jun-15 19:31N 29°54' W 090°06'0 0.0
2016-Jun-15 18:28N 29°54' W 090°06'0 0.0
2016-Jun-15 17:31N 29°54' W 090°06'0 0.0
2016-Jun-15 15:31N 29°54' W 090°06'0 0.0
2016-Jun-15 14:31N 29°54' W 090°06'0 0.0
2016-Jun-15 13:31N 29°54' W 090°06'0 0.0
2016-Jun-15 12:31N 29°54' W 090°06'0 0.0
2016-Jun-15 11:19N 29°54' W 090°06'0 0.0
2016-Jun-15 10:28N 29°54' W 090°06'0 0.0
2016-Jun-15 09:31N 29°54' W 090°06'0 0.0
2016-Jun-15 08:31N 29°54' W 090°06'0 0.0
2016-Jun-15 07:28N 29°54' W 090°06'0 0.0
2016-Jun-15 06:31N 29°54' W 090°06'  

Dump ship's entire track history